Allouez, Wisconsin
Current Conditions -  °F | °C
As of 2:04 PM on Monday 24 Nov 2014 (Local Time) from KGRB Reporting Station
Light Rain Light Rain  
Wind Chill: 33°   Ceiling: 800
Heat Index: 40°   Visibility: 5mi
Dew Point: 38°   Wind: 13mph
Humidity: 93%   Direction: 310°NW
Pressure: 29.15"   Gusts: NA
Location:  44.48°N, 88.02°W
Report Text: KGRB 242004Z 31011KT 5SM -RA BR BKN008 BKN015 OVC025 04/03 A2915 RMK AO2 P0001 T00440033
Loading
Personal Weather Stations






























Interactive Weather Map New forecast layout! Learn more

10-Day Weather Forecast

Advertisements
Track Severe Weather on mobile